Time;durP1;ratioP1;P1;durP2;ratioP2;P2;SDS_P1;SDS_P2;PMS_P1;PMS_P2;Temp;Humidity;BMP_temperature;BMP_pressure;BME280_temperature;BME280_humidity;BME280_pressure;Samples;Min_cycle;Max_cycle;Signal;HPM_P1;HPM_P2
2022/06/17 00:00:10;;;;;;;5.38;4.38;;;14.40;99.90;;;;;;4994266;28;20049;-74
2022/06/17 00:02:36;;;;;;;;;;;14.40;99.90;;;;;;4989699;28;20061;-74
2022/06/17 00:05:02;;;;;;;4.70;4.20;;;14.40;99.90;;;;;;4995940;28;20024;-74
2022/06/17 00:07:28;;;;;;;5.85;4.95;;;14.40;99.90;;;;;;4974523;28;20059;-74
2022/06/17 00:09:53;;;;;;;5.13;4.63;;;14.40;99.90;;;;;;4991580;28;20053;-74
2022/06/17 00:12:20;;;;;;;9.50;6.60;;;14.50;99.90;;;;;;4995878;28;20044;-74
2022/06/17 00:17:30;;;;;;;5.72;4.78;;;14.40;99.90;;;;;;4987265;28;20065;-74
2022/06/17 00:19:56;;;;;;;7.65;5.80;;;14.30;99.90;;;;;;4985950;28;20062;-74
2022/06/17 00:22:22;;;;;;;5.43;4.35;;;14.40;99.90;;;;;;4979226;28;20050;-74
2022/06/17 00:24:50;;;;;;;7.63;5.55;;;14.30;99.90;;;;;;4982951;28;20144;-74
2022/06/17 00:27:16;;;;;;;5.53;4.50;;;14.30;99.90;;;;;;4981652;28;20042;-74
2022/06/17 00:29:42;;;;;;;5.50;4.93;;;14.30;99.90;;;;;;4974034;28;20094;-74
2022/06/17 00:32:08;;;;;;;5.65;4.43;;;14.30;99.90;;;;;;4980484;28;20050;-74
2022/06/17 00:34:34;;;;;;;6.03;5.00;;;14.30;99.90;;;;;;4980658;28;20381;-74
2022/06/17 00:37:01;;;;;;;6.65;5.38;;;14.20;99.90;;;;;;4945246;28;20586;-74
2022/06/17 00:39:31;;;;;;;8.52;5.32;;;14.20;99.90;;;;;;4975662;28;20054;-74
2022/06/17 00:42:10;;;;;;;5.75;4.63;;;14.20;99.90;;;;;;4980486;28;20153;-74
2022/06/17 00:44:59;;;;;;;6.15;5.55;;;14.10;99.90;;;;;;4979721;28;20058;-74
2022/06/17 00:47:43;;;;;;;7.97;6.13;;;14.10;99.90;;;;;;4981858;28;20058;-74
2022/06/17 00:50:32;;;;;;;8.40;5.65;;;14.10;99.90;;;;;;4988865;28;20113;-74
2022/06/17 00:53:22;;;;;;;6.78;5.68;;;14.10;99.90;;;;;;4973306;28;20054;-74
2022/06/17 00:56:00;;;;;;;7.45;5.88;;;14.00;99.90;;;;;;4976334;28;20061;-74
2022/06/17 00:58:31;;;;;;;6.60;5.07;;;14.00;99.90;;;;;;4979513;28;20042;-74
2022/06/17 01:01:01;;;;;;;7.05;6.00;;;14.00;99.90;;;;;;4980652;28;20054;-74
2022/06/17 01:03:32;;;;;;;8.65;6.32;;;13.90;99.90;;;;;;4968863;28;20122;-74
2022/06/17 01:06:08;;;;;;;6.35;5.70;;;13.80;99.90;;;;;;4982754;28;20065;-74
2022/06/17 01:11:31;;;;;;;8.77;6.65;;;13.80;99.90;;;;;;4968114;28;20062;-75
2022/06/17 01:13:59;;;;;;;10.57;5.78;;;13.80;99.90;;;;;;4981544;28;20062;-74
2022/06/17 01:16:35;;;;;;;7.47;6.65;;;13.80;99.90;;;;;;4974137;28;20058;-74
2022/06/17 01:19:12;;;;;;;8.73;6.00;;;13.90;99.90;;;;;;4985316;28;20057;-74
2022/06/17 01:21:49;;;;;;;7.82;5.03;;;13.90;99.90;;;;;;4975948;28;20105;-74
2022/06/17 01:24:15;;;;;;;10.57;6.13;;;13.80;99.90;;;;;;4984662;28;20108;-74
2022/06/17 01:26:41;;;;;;;7.85;6.15;;;13.80;99.90;;;;;;4968498;28;20042;-74
2022/06/17 01:29:12;;;;;;;8.93;6.93;;;13.80;99.90;;;;;;4969395;28;20150;-74
2022/06/17 01:31:39;;;;;;;9.05;5.78;;;13.80;99.90;;;;;;4974877;28;20061;-74
2022/06/17 01:34:05;;;;;;;9.10;5.78;;;13.80;99.90;;;;;;4984231;28;20046;-74
2022/06/17 01:36:31;;;;;;;6.47;5.88;;;13.80;99.90;;;;;;4974367;28;20051;-74
2022/06/17 01:38:58;;;;;;;6.75;5.90;;;13.90;99.90;;;;;;4974489;28;20042;-74
2022/06/17 01:41:27;;;;;;;7.70;5.53;;;13.80;99.90;;;;;;4992947;28;20063;-74
2022/06/17 01:44:07;;;;;;;8.15;6.53;;;13.80;99.90;;;;;;4975612;28;20054;-74
2022/06/17 01:46:36;;;;;;;8.63;6.78;;;13.80;99.90;;;;;;4968286;28;20064;-74
2022/06/17 01:49:07;;;;;;;7.70;6.55;;;13.80;99.90;;;;;;4981744;28;20050;-74
2022/06/17 01:51:37;;;;;;;10.02;6.60;;;13.80;99.90;;;;;;4980259;28;20050;-73
2022/06/17 01:54:10;;;;;;;12.10;7.65;;;13.80;99.90;;;;;;4960327;28;20157;-74
2022/06/17 01:56:40;;;;;;;10.30;7.15;;;13.70;99.90;;;;;;4982863;28;20361;-74
2022/06/17 01:59:20;;;;;;;6.65;6.00;;;13.70;99.90;;;;;;4972236;28;20048;-74
2022/06/17 02:01:48;;;;;;;8.18;7.35;;;13.60;99.90;;;;;;4977768;28;20042;-74
2022/06/17 02:04:23;;;;;;;7.28;6.10;;;13.60;99.90;;;;;;4971212;28;20124;-74
2022/06/17 02:06:49;;;;;;;8.13;5.68;;;13.50;99.90;;;;;;4987577;28;20046;-74
2022/06/17 02:09:15;;;;;;;6.20;5.60;;;13.50;99.90;;;;;;4971671;28;20046;-74
2022/06/17 02:11:41;;;;;;;8.32;6.15;;;13.50;99.90;;;;;;4967100;28;20046;-74
2022/06/17 02:14:08;;;;;;;9.50;6.90;;;13.50;99.90;;;;;;4985730;28;20390;-74
2022/06/17 02:16:38;;;;;;;10.93;6.22;;;13.50;99.90;;;;;;4978111;28;20069;-74
2022/06/17 02:19:04;;;;;;;8.48;5.50;;;13.50;99.90;;;;;;4976295;28;20168;-74
2022/06/17 02:21:37;;;;;;;6.45;5.70;;;13.40;99.90;;;;;;4952761;28;20050;-74
2022/06/17 02:24:04;;;;;;;6.90;6.20;;;13.40;99.90;;;;;;4966581;28;20104;-74
2022/06/17 02:26:33;;;;;;;7.97;6.25;;;13.40;99.90;;;;;;4953940;28;20061;-73
2022/06/17 02:29:02;;;;;;;7.07;6.35;;;13.40;99.90;;;;;;4971979;28;20039;-74
2022/06/17 02:31:29;;;;;;;7.63;5.70;;;13.40;99.90;;;;;;4966948;28;20892;-74
2022/06/17 02:33:55;;;;;;;7.70;6.88;;;13.40;99.90;;;;;;4973980;28;20074;-74
2022/06/17 02:36:32;;;;;;;7.82;6.70;;;13.40;99.90;;;;;;4976256;28;20043;-74
2022/06/17 02:38:59;;;;;;;6.85;5.88;;;13.40;99.90;;;;;;4967644;28;20042;-74
2022/06/17 02:41:27;;;;;;;7.00;6.30;;;13.40;99.90;;;;;;4980614;28;20117;-74
2022/06/17 02:44:03;;;;;;;8.48;6.05;;;13.40;99.90;;;;;;4991502;28;20046;-74
2022/06/17 02:46:36;;;;;;;6.30;5.30;;;13.40;99.90;;;;;;4979827;28;20050;-74
2022/06/17 02:49:06;;;;;;;7.80;6.80;;;13.40;99.90;;;;;;4986131;28;20235;-74
2022/06/17 02:51:36;;;;;;;10.52;7.25;;;13.40;99.90;;;;;;4973510;28;20047;-75
2022/06/17 02:54:03;;;;;;;7.45;6.65;;;13.40;99.90;;;;;;4972706;28;20124;-74
2022/06/17 02:56:31;;;;;;;9.18;6.95;;;13.40;99.90;;;;;;4974106;28;20082;-74
2022/06/17 02:59:25;;;;;;;9.85;6.60;;;13.30;99.90;;;;;;4986192;28;20057;-75
2022/06/17 03:01:54;;;;;;;8.93;6.72;;;13.20;99.90;;;;;;4980136;28;20139;-74
2022/06/17 03:04:24;;;;;;;10.35;7.40;;;13.20;99.90;;;;;;4979516;28;20279;-74
2022/06/17 03:06:50;;;;;;;10.63;7.43;;;13.10;99.90;;;;;;4979200;28;20125;-74
2022/06/17 03:09:23;;;;;;;10.75;8.32;;;13.10;99.90;;;;;;4968429;28;20046;-74
2022/06/17 03:11:56;;;;;;;9.68;7.68;;;13.10;99.90;;;;;;4978878;28;20045;-74
2022/06/17 03:14:28;;;;;;;9.10;7.65;;;13.10;99.90;;;;;;4979683;28;20101;-74
2022/06/17 03:16:57;;;;;;;9.60;7.50;;;13.00;99.90;;;;;;4992719;28;20061;-74
2022/06/17 03:19:25;;;;;;;8.65;7.75;;;13.00;99.90;;;;;;4987808;28;20101;-74
2022/06/17 03:21:51;;;;;;;10.02;7.90;;;12.90;99.90;;;;;;4977399;28;20043;-74
2022/06/17 03:24:46;;;;;;;9.15;7.20;;;12.90;99.90;;;;;;4980554;28;20050;-73
2022/06/17 03:27:29;;;;;;;8.75;7.05;;;13.00;99.90;;;;;;4973403;28;20058;-74
2022/06/17 03:29:59;;;;;;;9.63;6.03;;;13.00;99.90;;;;;;4975294;28;20527;-74
2022/06/17 03:32:36;;;;;;;12.98;8.25;;;13.00;99.90;;;;;;4978969;28;20455;-74
2022/06/17 03:35:03;;;;;;;12.80;7.47;;;13.20;99.90;;;;;;4981225;28;20151;-74
2022/06/17 03:37:44;;;;;;;10.80;8.15;;;13.20;99.90;;;;;;4976359;28;20054;-74
2022/06/17 03:40:17;;;;;;;8.35;6.82;;;13.30;99.90;;;;;;4981431;28;20057;-74
2022/06/17 03:43:02;;;;;;;9.05;7.35;;;13.40;99.90;;;;;;4985578;28;20050;-74
2022/06/17 03:45:39;;;;;;;8.55;6.75;;;13.50;99.90;;;;;;4987107;28;20136;-74
2022/06/17 03:48:49;;;;;;;8.40;6.50;;;13.60;99.90;;;;;;4980678;28;20056;-74
2022/06/17 03:51:18;;;;;;;7.03;5.65;;;13.70;99.90;;;;;;4978128;28;20065;-75
2022/06/17 03:53:44;;;;;;;7.05;6.28;;;13.80;99.90;;;;;;4974138;28;20139;-74
2022/06/17 03:56:17;;;;;;;7.40;5.78;;;13.80;99.90;;;;;;4990477;28;20077;-73
2022/06/17 03:58:45;;;;;;;8.25;5.22;;;14.00;99.90;;;;;;4992672;28;20040;-75
2022/06/17 04:01:22;;;;;;;6.75;5.32;;;14.00;99.90;;;;;;4983285;28;20058;-76
2022/06/17 04:03:57;;;;;;;9.50;6.03;;;14.10;99.90;;;;;;4981550;28;20046;-74
2022/06/17 04:06:27;;;;;;;7.40;6.38;;;14.10;99.90;;;;;;4977240;28;20054;-74
2022/06/17 04:09:15;;;;;;;7.60;5.90;;;14.20;99.90;;;;;;4965624;28;20363;-74
2022/06/17 04:11:45;;;;;;;11.00;6.95;;;14.20;99.90;;;;;;4969483;28;20058;-74
2022/06/17 04:14:44;;;;;;;9.25;6.97;;;14.20;99.90;;;;;;4984719;28;20100;-75
2022/06/17 04:17:18;;;;;;;9.23;7.03;;;14.30;99.90;;;;;;4981773;28;20750;-74
2022/06/17 04:19:53;;;;;;;7.90;6.00;;;14.30;99.90;;;;;;4978490;28;20373;-74
2022/06/17 04:22:25;;;;;;;8.25;6.80;;;14.40;99.90;;;;;;4977739;28;20070;-74
2022/06/17 04:25:00;;;;;;;7.68;5.88;;;14.50;99.90;;;;;;4977010;28;20058;-75
2022/06/17 04:27:56;;;;;;;8.48;6.55;;;14.70;99.90;;;;;;4978802;28;20050;-75
2022/06/17 04:30:29;;;;;;;8.30;5.97;;;14.70;99.90;;;;;;4980954;28;21016;-74
2022/06/17 04:33:01;;;;;;;15.60;6.90;;;14.80;99.90;;;;;;4988591;28;20050;-74
2022/06/17 04:35:28;;;;;;;15.52;7.28;;;14.90;99.90;;;;;;4984450;28;20052;-74
2022/06/17 04:37:54;;;;;;;6.00;4.25;;;15.00;99.90;;;;;;4976297;28;20126;-74
2022/06/17 04:40:31;;;;;;;5.93;4.10;;;15.10;99.90;;;;;;4980882;28;20433;-74
2022/06/17 04:42:58;;;;;;;6.57;4.70;;;15.20;99.90;;;;;;4985597;28;20130;-74
2022/06/17 04:45:27;;;;;;;4.88;4.40;;;15.30;99.90;;;;;;4987786;28;20054;-74
2022/06/17 04:47:54;;;;;;;5.13;3.72;;;15.40;99.90;;;;;;4985246;28;20046;-74
2022/06/17 04:50:24;;;;;;;3.40;3.10;;;15.50;99.90;;;;;;4988167;28;20054;-74
2022/06/17 04:52:51;;;;;;;6.47;4.57;;;15.60;99.90;;;;;;4982661;28;20046;-74
2022/06/17 04:55:28;;;;;;;4.68;3.83;;;15.70;99.90;;;;;;4979685;28;20108;-74
2022/06/17 04:57:54;;;;;;;5.13;3.80;;;15.80;99.90;;;;;;4953486;28;20581;-73
2022/06/17 05:00:25;;;;;;;5.18;4.03;;;15.80;99.90;;;;;;4968897;28;20046;-74
2022/06/17 05:02:52;;;;;;;4.97;4.43;;;15.90;99.90;;;;;;4978779;28;20054;-75
2022/06/17 05:05:34;;;;;;;4.90;3.72;;;15.90;99.90;;;;;;4961696;28;20050;-74
2022/06/17 05:08:03;;;;;;;7.13;4.55;;;15.90;99.90;;;;;;4981549;28;20097;-74
2022/06/17 05:10:42;;;;;;;6.53;4.03;;;16.00;99.90;;;;;;4978741;28;20097;-74
2022/06/17 05:13:15;;;;;;;7.47;4.15;;;16.00;99.90;;;;;;4984519;28;20089;-74
2022/06/17 05:15:41;;;;;;;7.97;5.40;;;16.00;99.90;;;;;;4983749;28;20046;-74
2022/06/17 05:18:07;;;;;;;5.80;4.40;;;16.00;99.90;;;;;;4985616;28;20681;-75
2022/06/17 05:20:32;;;;;;;6.85;4.85;;;16.10;99.90;;;;;;4984689;28;20058;-74
2022/06/17 05:23:04;;;;;;;7.03;4.43;;;16.10;99.90;;;;;;4969557;28;20092;-75
2022/06/17 05:25:38;;;;;;;8.60;4.93;;;16.20;99.90;;;;;;4985177;28;20046;-74
2022/06/17 05:28:07;;;;;;;8.85;4.70;;;16.20;99.90;;;;;;4978190;28;20148;-74
2022/06/17 05:30:41;;;;;;;6.82;5.00;;;16.20;99.90;;;;;;4981672;28;20226;-74
2022/06/17 05:33:10;;;;;;;8.52;5.93;;;16.30;99.90;;;;;;4983100;28;20052;-74
2022/06/17 05:35:36;;;;;;;5.55;5.05;;;16.30;99.90;;;;;;4991956;28;20046;-74
2022/06/17 05:38:01;;;;;;;11.88;5.07;;;16.30;99.90;;;;;;4978587;28;20053;-74
2022/06/17 05:40:27;;;;;;;6.22;5.20;;;16.30;99.90;;;;;;4979791;28;20054;-74
2022/06/17 05:42:53;;;;;;;8.40;6.13;;;16.30;99.90;;;;;;4979567;28;20127;-74
2022/06/17 05:45:26;;;;;;;6.97;5.30;;;16.40;99.90;;;;;;4977986;28;20055;-75
2022/06/17 05:47:52;;;;;;;9.18;4.82;;;16.40;99.90;;;;;;4984524;28;20660;-75
2022/06/17 05:50:20;;;;;;;10.40;5.28;;;16.50;99.90;;;;;;4975009;28;20081;-74
2022/06/17 05:53:08;;;;;;;6.50;5.82;;;16.50;99.90;;;;;;4968869;28;20041;-74
2022/06/17 05:55:35;;;;;;;5.85;5.22;;;16.50;99.90;;;;;;4979994;28;20491;-74
2022/06/17 05:58:02;;;;;;;7.65;5.45;;;16.60;99.90;;;;;;4980792;28;20058;-74
2022/06/17 06:00:29;;;;;;;7.07;5.30;;;16.70;99.90;;;;;;4980712;28;20600;-75
2022/06/17 06:02:59;;;;;;;5.65;5.07;;;16.80;99.90;;;;;;4980389;28;20523;-75
2022/06/17 06:05:27;;;;;;;6.82;6.10;;;16.90;99.90;;;;;;4988886;28;20058;-74
2022/06/17 06:07:53;;;;;;;6.68;5.40;;;16.90;99.90;;;;;;4992669;28;20725;-74
2022/06/17 06:10:20;;;;;;;6.65;5.50;;;17.00;99.90;;;;;;4984646;28;20050;-74
2022/06/17 06:12:57;;;;;;;6.63;5.30;;;17.00;99.90;;;;;;4981096;28;20082;-74
2022/06/17 06:15:33;;;;;;;6.57;4.70;;;17.10;99.90;;;;;;4979719;28;20478;-75
2022/06/17 06:17:59;;;;;;;6.38;5.10;;;17.20;99.90;;;;;;4980552;28;20069;-75
2022/06/17 06:20:25;;;;;;;8.13;5.70;;;17.20;99.90;;;;;;4982664;28;20111;-74
2022/06/17 06:22:51;;;;;;;7.60;5.88;;;17.30;99.90;;;;;;4979233;28;20054;-74
2022/06/17 06:25:18;;;;;;;9.55;5.35;;;17.30;99.90;;;;;;4983661;28;20509;-74
2022/06/17 06:27:44;;;;;;;7.22;5.32;;;17.30;99.90;;;;;;4990700;28;20046;-74
2022/06/17 06:30:18;;;;;;;8.60;5.63;;;17.40;99.90;;;;;;4978006;28;20947;-74
2022/06/17 06:32:48;;;;;;;8.63;5.45;;;17.40;99.90;;;;;;4983557;28;20077;-74
2022/06/17 06:35:16;;;;;;;8.02;5.18;;;17.40;99.90;;;;;;4965551;28;20062;-75
2022/06/17 06:37:42;;;;;;;12.50;6.60;;;17.40;99.90;;;;;;4972078;28;20046;-75
2022/06/17 06:40:09;;;;;;;11.07;6.07;;;17.50;99.90;;;;;;4983002;28;20725;-75
2022/06/17 06:42:34;;;;;;;7.28;6.53;;;17.50;99.90;;;;;;4965616;28;20418;-74
2022/06/17 06:45:00;;;;;;;7.63;6.93;;;17.60;99.90;;;;;;4985195;28;20046;-74
2022/06/17 06:47:26;;;;;;;6.90;6.00;;;17.60;99.90;;;;;;4984845;28;21498;-74
2022/06/17 06:49:51;;;;;;;8.30;5.38;;;17.80;99.90;;;;;;4983807;28;20454;-74
2022/06/17 06:52:17;;;;;;;8.88;6.07;;;17.90;99.90;;;;;;4966495;28;20054;-75
2022/06/17 06:54:43;;;;;;;7.03;5.40;;;18.00;99.90;;;;;;4989107;28;20139;-74
2022/06/17 06:57:10;;;;;;;13.07;6.22;;;18.20;99.90;;;;;;4978607;28;20156;-75
2022/06/17 06:59:36;;;;;;;7.68;6.18;;;18.40;99.90;;;;;;4974949;28;20043;-74
2022/06/17 07:02:02;;;;;;;12.88;6.60;;;18.60;99.90;;;;;;4981891;28;20046;-74
2022/06/17 07:04:27;;;;;;;9.68;5.85;;;18.80;99.90;;;;;;4988597;28;20840;-75
2022/06/17 07:06:53;;;;;;;6.70;5.90;;;19.00;99.90;;;;;;4979065;28;20054;-74
2022/06/17 07:09:21;;;;;;;8.15;5.72;;;19.10;99.90;;;;;;4984944;28;20478;-74
2022/06/17 07:11:46;;;;;;;7.57;5.32;;;19.20;99.90;;;;;;4979723;28;20050;-75
2022/06/17 07:14:12;;;;;;;8.57;5.53;;;19.40;99.90;;;;;;4985121;28;20056;-74
2022/06/17 07:16:38;;;;;;;8.90;5.45;;;19.50;99.90;;;;;;4981416;28;20495;-74
2022/06/17 07:19:07;;;;;;;14.43;6.18;;;19.70;99.90;;;;;;4986602;28;20068;-75
2022/06/17 07:21:33;;;;;;;6.93;5.20;;;20.00;99.90;;;;;;4989365;28;20056;-75
2022/06/17 07:23:59;;;;;;;6.97;5.57;;;20.10;99.90;;;;;;4993129;28;20056;-75
2022/06/17 07:26:25;;;;;;;5.80;4.93;;;20.20;99.90;;;;;;4992041;28;20050;-74
2022/06/17 07:28:53;;;;;;;8.30;5.45;;;20.30;99.90;;;;;;4985492;28;20843;-74
2022/06/17 07:31:19;;;;;;;8.75;5.70;;;20.30;99.90;;;;;;4955181;28;21064;-74
2022/06/17 07:33:45;;;;;;;7.03;5.30;;;20.20;99.90;;;;;;4983403;28;20058;-75
2022/06/17 07:39:53;;;;;;;8.27;5.97;;;20.20;99.90;;;;;;4986811;28;20050;-74
2022/06/17 07:41:55;;;;;;;;;;;20.40;99.90;;;;;;4986264;28;20513;-74
2022/06/17 07:44:21;;;;;;;8.57;6.25;;;20.40;99.80;;;;;;4985029;28;19922;-74
2022/06/17 07:46:47;;;;;;;7.60;5.18;;;20.60;99.90;;;;;;4989477;28;20161;-74
2022/06/17 07:49:12;;;;;;;7.38;6.18;;;20.80;99.90;;;;;;4979486;28;20775;-77
2022/06/17 07:51:38;;;;;;;7.32;5.80;;;21.20;99.90;;;;;;4990074;28;20540;-74
2022/06/17 07:54:04;;;;;;;6.72;5.53;;;21.30;99.80;;;;;;4988824;28;20046;-74
2022/06/17 07:56:30;;;;;;;8.88;6.63;;;21.70;99.90;;;;;;4979086;28;20624;-74
2022/06/17 07:58:55;;;;;;;11.57;6.97;;;21.90;99.20;;;;;;4990833;28;20041;-74
2022/06/17 08:01:21;;;;;;;8.85;4.95;;;22.30;99.10;;;;;;4990358;28;20104;-74
2022/06/17 08:03:47;;;;;;;8.35;5.57;;;22.70;98.60;;;;;;4988055;28;20057;-74
2022/06/17 08:06:14;;;;;;;8.63;4.40;;;22.90;98.00;;;;;;4991290;28;21445;-74
2022/06/17 08:08:41;;;;;;;7.60;5.55;;;23.20;97.10;;;;;;4989945;28;20053;-74
2022/06/17 08:11:07;;;;;;;6.13;5.53;;;23.40;97.00;;;;;;4624060;28;10000365;-74
2022/06/17 08:13:33;;;;;;;6.88;4.82;;;23.40;95.90;;;;;;4983663;28;20049;-74
2022/06/17 08:16:05;;;;;;;6.25;3.88;;;23.40;95.60;;;;;;4985846;28;20053;-74
2022/06/17 08:18:32;;;;;;;5.07;4.40;;;23.40;95.50;;;;;;4986252;28;20165;-74
2022/06/17 08:20:57;;;;;;;4.75;4.35;;;23.40;95.80;;;;;;4977875;28;20043;-76
2022/06/17 08:23:24;;;;;;;5.53;4.15;;;23.40;95.30;;;;;;4979806;28;20112;-74
2022/06/17 08:25:50;;;;;;;5.75;4.50;;;23.40;95.20;;;;;;4974910;28;20053;-74
2022/06/17 08:28:17;;;;;;;6.35;4.55;;;23.40;94.70;;;;;;4989616;28;20049;-74
2022/06/17 08:30:49;;;;;;;5.63;4.30;;;23.50;94.80;;;;;;4982001;28;20095;-73
2022/06/17 08:33:16;;;;;;;8.68;5.13;;;23.50;94.10;;;;;;4978342;28;20131;-76
2022/06/17 08:35:47;;;;;;;4.95;4.22;;;24.20;93.90;;;;;;4981695;28;20148;-74
2022/06/17 08:38:21;;;;;;;5.35;4.15;;;25.00;93.60;;;;;;4978681;28;20379;-74
2022/06/17 08:40:52;;;;;;;6.25;4.22;;;25.30;91.70;;;;;;4954027;28;20050;-74
2022/06/17 08:43:32;;;;;;;12.65;10.50;;;25.90;92.00;;;;;;4978019;28;20046;-73
2022/06/17 08:46:00;;;;;;;8.88;6.43;;;26.40;90.40;;;;;;4976563;28;20058;-73
2022/06/17 08:48:37;;;;;;;7.63;4.72;;;26.50;90.90;;;;;;4966288;28;20462;-76
2022/06/17 08:51:33;;;;;;;5.53;4.28;;;26.70;90.80;;;;;;4979943;28;20049;-75
2022/06/17 08:54:17;;;;;;;5.13;4.57;;;27.00;89.00;;;;;;4966883;28;20053;-74
2022/06/17 08:56:54;;;;;;;4.47;3.50;;;26.40;87.40;;;;;;4984933;28;20085;-75
2022/06/17 08:59:29;;;;;;;5.72;3.70;;;26.30;90.10;;;;;;4981671;28;20131;-75
2022/06/17 09:02:02;;;;;;;5.15;4.10;;;26.00;90.30;;;;;;4985540;28;20058;-74
2022/06/17 09:04:33;;;;;;;6.38;3.80;;;25.80;90.10;;;;;;4982842;28;20900;-75
2022/06/17 09:07:18;;;;;;;24.93;13.00;;;25.60;89.70;;;;;;4984691;28;20064;-76
2022/06/17 09:10:23;;;;;;;22.65;19.60;;;25.20;90.70;;;;;;4973007;28;20042;-75
2022/06/17 09:13:17;;;;;;;8.40;6.57;;;25.10;88.10;;;;;;4986220;28;20054;-74
2022/06/17 09:15:50;;;;;;;6.88;4.70;;;25.00;90.40;;;;;;4984406;28;20041;-75
2022/06/17 09:18:36;;;;;;;9.00;4.82;;;24.90;90.80;;;;;;4988412;28;20652;-75
2022/06/17 09:21:22;;;;;;;4.47;4.07;;;24.80;90.50;;;;;;4984109;28;20065;-75
2022/06/17 09:23:50;;;;;;;6.40;4.05;;;24.80;90.60;;;;;;4987250;28;20891;-75
2022/06/17 09:26:32;;;;;;;6.80;4.60;;;24.80;90.90;;;;;;4981122;28;20049;-75
2022/06/17 09:29:20;;;;;;;6.07;3.95;;;24.80;90.70;;;;;;4987726;28;20137;-75
2022/06/17 09:31:50;;;;;;;6.82;4.43;;;24.70;90.90;;;;;;4982067;28;20058;-74
2022/06/17 09:34:42;;;;;;;5.95;4.85;;;24.60;91.00;;;;;;4974284;28;20647;-76
2022/06/17 09:37:30;;;;;;;6.53;4.43;;;24.60;90.50;;;;;;4973836;28;20060;-77
2022/06/17 09:40:02;;;;;;;8.30;4.25;;;24.50;90.30;;;;;;4970529;28;20042;-74
2022/06/17 09:42:49;;;;;;;6.45;4.82;;;24.50;91.10;;;;;;4975784;28;20085;-76
2022/06/17 09:45:23;;;;;;;5.63;4.00;;;24.70;91.40;;;;;;4986667;28;20054;-77
2022/06/17 09:47:56;;;;;;;7.65;4.82;;;24.90;91.20;;;;;;4980643;28;20048;-78
2022/06/17 09:50:30;;;;;;;6.30;4.68;;;25.10;90.70;;;;;;4967886;28;20139;-77
2022/06/17 09:53:08;;;;;;;6.75;4.93;;;25.30;90.10;;;;;;4987099;28;20089;-79
2022/06/17 09:55:53;;;;;;;6.88;4.88;;;25.70;90.30;;;;;;4975629;28;20153;-77
2022/06/17 09:58:51;;;;;;;8.27;5.00;;;26.00;89.30;;;;;;4986110;28;20050;-78
2022/06/17 10:01:17;;;;;;;7.70;5.82;;;26.50;89.70;;;;;;4974806;28;20121;-78
2022/06/17 10:03:43;;;;;;;7.45;5.00;;;26.80;90.30;;;;;;4977404;28;20042;-78
2022/06/17 10:06:27;;;;;;;6.40;4.78;;;26.80;89.90;;;;;;4979487;28;20104;-77
2022/06/17 10:09:00;;;;;;;7.15;5.20;;;26.60;86.80;;;;;;4987125;28;20335;-76
2022/06/17 10:11:55;;;;;;;7.53;3.95;;;26.60;88.20;;;;;;4978996;28;20057;-79
2022/06/17 10:14:53;;;;;;;6.60;3.70;;;26.30;87.50;;;;;;4953725;28;20097;-77
2022/06/17 10:20:24;;;;;;;5.65;4.13;;;25.90;88.50;;;;;;4983860;28;20053;-77
2022/06/17 10:23:02;;;;;;;10.63;3.67;;;25.70;88.50;;;;;;4986436;28;20057;-76
2022/06/17 10:25:46;;;;;;;4.47;3.40;;;25.60;87.60;;;;;;4974233;28;20049;-75
2022/06/17 10:28:35;;;;;;;5.30;3.40;;;25.70;88.30;;;;;;4965623;28;21351;-75
2022/06/17 10:31:21;;;;;;;37.33;25.92;;;25.60;89.50;;;;;;4981214;28;20576;-78
2022/06/17 10:33:47;;;;;;;9.77;7.05;;;25.60;88.90;;;;;;4973903;28;20085;-78
2022/06/17 10:36:13;;;;;;;8.07;5.07;;;25.50;88.70;;;;;;4977924;28;20054;-76
2022/06/17 10:38:46;;;;;;;6.18;4.60;;;25.30;88.40;;;;;;4974793;28;20052;-75
2022/06/17 10:41:12;;;;;;;4.43;4.00;;;25.20;88.10;;;;;;4983443;28;20073;-75
2022/06/17 10:43:41;;;;;;;3.92;3.50;;;25.10;88.30;;;;;;4976693;28;20050;-76
2022/06/17 10:46:14;;;;;;;6.10;4.03;;;25.10;89.40;;;;;;4971865;28;20050;-75
2022/06/17 10:49:03;;;;;;;6.90;4.07;;;25.10;89.40;;;;;;4975549;28;20053;-76
2022/06/17 10:51:29;;;;;;;5.97;4.07;;;25.20;89.50;;;;;;4977192;28;20045;-74
2022/06/17 10:54:02;;;;;;;7.47;4.15;;;25.20;89.60;;;;;;4977660;28;20082;-76
2022/06/17 10:56:36;;;;;;;5.72;3.80;;;25.40;90.10;;;;;;4979928;28;20505;-77
2022/06/17 10:59:07;;;;;;;5.03;3.45;;;25.60;90.00;;;;;;4979344;28;20046;-76
2022/06/17 11:01:45;;;;;;;5.93;3.17;;;25.80;90.20;;;;;;4980022;28;20061;-75
2022/06/17 11:04:12;;;;;;;8.15;4.00;;;26.00;88.60;;;;;;4977335;28;20038;-76
2022/06/17 11:07:15;;;;;;;8.00;4.25;;;26.20;87.90;;;;;;5002318;28;20062;-75
2022/06/17 11:09:52;;;;;;;5.55;3.85;;;26.30;86.00;;;;;;5007469;28;20049;-75
2022/06/17 11:12:24;;;;;;;7.22;4.30;;;26.50;86.10;;;;;;5002485;28;20030;-75
2022/06/17 11:15:05;;;;;;;6.60;4.32;;;26.50;86.30;;;;;;4999634;28;20038;-75
2022/06/17 11:17:42;;;;;;;5.75;3.78;;;26.50;85.10;;;;;;5014338;28;20061;-73
2022/06/17 11:20:19;;;;;;;5.60;4.15;;;26.40;86.50;;;;;;5001459;28;20114;-74
2022/06/17 11:22:53;;;;;;;7.20;4.53;;;26.50;86.40;;;;;;4956869;28;20094;-75
2022/06/17 11:25:21;;;;;;;5.35;3.88;;;26.60;86.50;;;;;;4987469;28;20210;-74
2022/06/17 11:28:08;;;;;;;10.82;4.15;;;26.60;86.80;;;;;;5014350;28;20084;-74
2022/06/17 11:30:38;;;;;;;6.82;4.05;;;26.70;86.00;;;;;;5005051;28;20041;-74
2022/06/17 11:33:22;;;;;;;8.00;4.43;;;26.90;87.70;;;;;;4986652;28;20046;-74
2022/06/17 11:36:06;;;;;;;8.50;4.60;;;27.00;85.60;;;;;;4999268;28;20050;-74
2022/06/17 11:38:33;;;;;;;8.25;4.90;;;27.10;85.40;;;;;;4990757;28;20046;-76
2022/06/17 11:41:00;;;;;;;6.72;4.35;;;27.20;86.70;;;;;;4986743;28;20085;-74
2022/06/17 11:43:32;;;;;;;6.25;4.55;;;27.40;86.00;;;;;;4984871;28;20130;-75
2022/06/17 11:46:06;;;;;;;4.93;3.60;;;27.40;85.30;;;;;;4967630;28;20145;-76
2022/06/17 11:48:32;;;;;;;7.68;3.72;;;27.40;84.90;;;;;;4987054;28;20062;-77
2022/06/17 11:51:06;;;;;;;7.05;3.80;;;27.40;85.70;;;;;;4999074;28;20647;-76
2022/06/17 11:54:01;;;;;;;5.07;3.92;;;27.50;85.50;;;;;;4973016;28;20075;-76
2022/06/17 11:56:34;;;;;;;4.82;3.80;;;27.50;85.80;;;;;;4990601;28;20160;-72
2022/06/17 11:59:16;;;;;;;6.07;3.60;;;27.70;84.20;;;;;;4987870;28;20089;-72
2022/06/17 12:02:01;;;;;;;5.70;4.13;;;27.80;85.30;;;;;;4978337;28;20050;-73
2022/06/17 12:04:46;;;;;;;6.30;3.42;;;27.90;83.40;;;;;;4993927;28;20046;-74
2022/06/17 12:07:44;;;;;;;4.03;3.63;;;28.10;83.30;;;;;;4980329;28;20057;-73
2022/06/17 12:10:31;;;;;;;8.80;4.35;;;28.20;83.10;;;;;;4990158;28;20049;-75
2022/06/17 12:13:11;;;;;;;5.97;3.75;;;28.20;82.90;;;;;;4987975;28;20596;-75
2022/06/17 12:15:54;;;;;;;3.75;3.45;;;28.20;82.40;;;;;;4987713;28;20159;-78
2022/06/17 12:18:19;;;;;;;;;;;28.20;80.90;;;;;;4977418;28;20065;-75
2022/06/17 12:21:12;;;;;;;4.78;3.63;;;28.20;81.90;;;;;;4985383;28;19929;-76
2022/06/17 12:23:41;;;;;;;;;;;28.40;81.60;;;;;;4990028;28;20050;-75
2022/06/17 12:26:15;;;;;;;4.15;3.78;;;28.40;80.50;;;;;;4980519;28;19949;-77
2022/06/17 12:28:59;;;;;;;4.63;3.90;;;28.50;79.30;;;;;;4978791;28;20074;-75
2022/06/17 12:31:40;;;;;;;4.15;3.40;;;28.50;79.00;;;;;;4980880;28;20054;-75
2022/06/17 12:34:22;;;;;;;5.03;3.83;;;28.50;80.50;;;;;;4984012;28;20130;-76
2022/06/17 12:36:50;;;;;;;6.22;3.25;;;28.70;81.70;;;;;;4982832;28;20047;-75
2022/06/17 12:39:36;;;;;;;6.70;3.55;;;28.80;81.40;;;;;;4977234;28;20034;-77
2022/06/17 12:42:32;;;;;;;3.58;3.22;;;28.80;80.00;;;;;;4989978;28;20054;-76
2022/06/17 12:45:29;;;;;;;4.68;3.97;;;29.00;78.90;;;;;;4978666;28;20093;-77
2022/06/17 12:47:54;;;;;;;5.95;3.60;;;29.00;76.60;;;;;;4973459;28;20055;-77
2022/06/17 12:53:37;;;;;;;4.35;3.28;;;28.90;77.90;;;;;;4979864;28;20693;-77
2022/06/17 12:56:21;;;;;;;8.07;3.47;;;29.00;77.50;;;;;;4985650;28;20062;-76
2022/06/17 12:59:27;;;;;;;3.88;3.45;;;29.10;78.80;;;;;;4979998;28;20083;-76
2022/06/17 13:02:05;;;;;;;4.40;3.65;;;29.00;76.50;;;;;;4982817;28;20050;-77
2022/06/17 13:04:54;;;;;;;5.78;3.17;;;29.00;77.50;;;;;;4978195;28;20608;-76
2022/06/17 13:07:31;;;;;;;4.30;3.78;;;28.90;78.30;;;;;;4973659;28;20159;-76
2022/06/17 13:10:39;;;;;;;5.38;3.65;;;28.90;77.10;;;;;;4978384;28;20034;-76
2022/06/17 13:13:13;;;;;;;9.27;3.40;;;28.90;76.10;;;;;;4972682;28;20089;-76
2022/06/17 13:15:47;;;;;;;3.42;3.13;;;28.90;77.30;;;;;;4981453;28;20109;-76
2022/06/17 13:18:19;;;;;;;8.82;3.75;;;29.10;76.70;;;;;;4972503;28;20058;-75
2022/06/17 13:21:05;;;;;;;;;;;29.10;77.00;;;;;;4983266;28;20053;-76
2022/06/17 13:24:08;;;;;;;5.15;3.30;;;28.90;74.20;;;;;;4980670;28;19996;-76
2022/06/17 13:26:59;;;;;;;8.30;4.05;;;28.90;76.70;;;;;;4972446;28;20647;-76
2022/06/17 13:29:25;;;;;;;6.75;4.38;;;28.70;76.20;;;;;;4979318;28;20082;-76
2022/06/17 13:32:00;;;;;;;6.13;3.53;;;28.60;76.80;;;;;;4978799;28;20200;-76
2022/06/17 13:34:36;;;;;;;5.75;3.55;;;28.60;77.60;;;;;;4969819;28;20505;-76